Startpagina
METAR-TAF:

METAR-TAF

Vliegvelden :

Kilimanjaro International Airport

Kilimanjaro, Tanzania

breedte: 03-25S, lengte: 037-04E, hoogte: 891 m

Actueel weer

Dit bericht is 1 uur en het 38 minuten geleden gemaakt, om 22:00 UTC
Wind 10 kt uit het oosten
Temperatuur 24°C
Vochtigheid 83%
Druk 1015 hPa
Zicht 10 km of meer
Verspreide wolken op 2500 ft

METAR: HTKJ 232200Z 10010KT 9999 SCT025 24/21 Q1015 NOSIG

Tijdstip: 02:38 (23:38 UTC)

Verwachting

Dit bericht is 6 uur en het 38 minuten geleden gemaakt, om 17:00 UTC
Verwachting geldig van 23 om 18 UTC tot 24 om 18 UTC
Wind 10 kt uit het oosten
Zicht 10 km of meer
Verspreide wolken op 2400 ft
Wijzigt naar
van 24 om 11 UTC tot 24 om 13 UTC
Gebroken wolken op 2900 ft
Weinig wolken op 3000 ft, Cumulonimbus.
Wijzigt naar
van 24 om 16 UTC tot 24 om 18 UTC
Weinig wolken op 2600 ft

TAF: HTKJ 231700Z 2318/2418 09010KT 9999 SCT024 BECMG 2411/2413 BKN029 FEW030CB BECMG 2416/2418 FEW026

Waarnemingen en weersverwachtingen van meer dan 4000 vliegvelden (METAR en TAF).

De beschikbare stations zijn de gele en rode punten op de kaart.

Ga met uw muis naar het station om de naam te zien.

Klik dan om waarnemingen en weersverwachtingen te zien.

kaart wijzigen: klik op de groene knoppen met een zwart kruis om in te zoomen, op de groene knop met een streepje om uit te zoomen of op de groene pijlen voor aangrenzende kaarten.


METAR-TAF: